sensor_id;sensor_type;location;lat;lon;timestamp;pressure;altitude;pressure_sealevel;temperature;humidity
19236;BME280;9752;54.270;12.470;2023-06-22T00:04:09;103423.72;;;13.15;100.00
19236;BME280;9752;54.270;12.470;2023-06-22T00:09:10;103452.63;;;12.99;100.00
19236;BME280;9752;54.270;12.470;2023-06-22T00:14:12;103457.34;;;12.84;100.00
19236;BME280;9752;54.270;12.470;2023-06-22T00:19:15;103479.91;;;12.75;100.00
19236;BME280;9752;54.270;12.470;2023-06-22T00:24:17;103513.94;;;12.68;100.00
19236;BME280;9752;54.270;12.470;2023-06-22T00:29:19;103550.50;;;12.78;100.00
19236;BME280;9752;54.270;12.470;2023-06-22T00:34:22;103567.09;;;12.70;100.00
19236;BME280;9752;54.270;12.470;2023-06-22T00:39:23;103612.75;;;12.75;100.00
19236;BME280;9752;54.270;12.470;2023-06-22T00:44:25;103637.84;;;12.75;100.00
19236;BME280;9752;54.270;12.470;2023-06-22T00:49:28;103656.88;;;12.65;100.00
19236;BME280;9752;54.270;12.470;2023-06-22T00:54:30;103687.22;;;12.64;100.00
19236;BME280;9752;54.270;12.470;2023-06-22T00:59:31;103710.66;;;12.56;100.00
19236;BME280;9752;54.270;12.470;2023-06-22T01:04:37;103720.63;;;12.51;100.00
19236;BME280;9752;54.270;12.470;2023-06-22T01:09:45;103753.38;;;12.66;100.00
19236;BME280;9752;54.270;12.470;2023-06-22T01:14:56;103799.63;;;12.69;100.00
19236;BME280;9752;54.270;12.470;2023-06-22T01:20:02;103818.94;;;12.54;100.00
19236;BME280;9752;54.270;12.470;2023-06-22T01:25:10;103830.13;;;12.53;100.00
19236;BME280;9752;54.270;12.470;2023-06-22T01:30:16;103856.00;;;12.51;100.00
19236;BME280;9752;54.270;12.470;2023-06-22T01:35:18;103854.16;;;12.41;100.00
19236;BME280;9752;54.270;12.470;2023-06-22T01:40:21;103863.34;;;12.38;100.00
19236;BME280;9752;54.270;12.470;2023-06-22T01:45:27;103871.25;;;12.22;100.00
19236;BME280;9752;54.270;12.470;2023-06-22T01:50:29;103885.47;;;12.25;100.00
19236;BME280;9752;54.270;12.470;2023-06-22T01:55:31;103923.66;;;12.34;100.00
19236;BME280;9752;54.270;12.470;2023-06-22T02:00:37;103961.63;;;12.32;100.00
19236;BME280;9752;54.270;12.470;2023-06-22T02:05:44;103985.56;;;12.45;100.00
19236;BME280;9752;54.270;12.470;2023-06-22T02:10:50;104051.63;;;12.96;100.00
19236;BME280;9752;54.270;12.470;2023-06-22T02:15:56;104080.72;;;12.92;100.00
19236;BME280;9752;54.270;12.470;2023-06-22T02:20:58;104076.38;;;12.75;100.00
19236;BME280;9752;54.270;12.470;2023-06-22T02:25:59;104078.13;;;12.59;100.00
19236;BME280;9752;54.270;12.470;2023-06-22T02:31:04;104061.91;;;12.37;100.00
19236;BME280;9752;54.270;12.470;2023-06-22T02:36:05;104076.78;;;12.38;100.00
19236;BME280;9752;54.270;12.470;2023-06-22T02:41:09;104111.53;;;12.63;100.00
19236;BME280;9752;54.270;12.470;2023-06-22T02:46:14;104133.06;;;12.78;100.00
19236;BME280;9752;54.270;12.470;2023-06-22T02:51:16;104146.88;;;12.85;100.00
19236;BME280;9752;54.270;12.470;2023-06-22T02:56:18;104174.44;;;13.08;100.00
19236;BME280;9752;54.270;12.470;2023-06-22T03:01:27;104221.50;;;13.43;100.00
19236;BME280;9752;54.270;12.470;2023-06-22T03:06:31;104242.88;;;13.56;100.00
19236;BME280;9752;54.270;12.470;2023-06-22T03:11:34;104261.63;;;13.70;100.00
19236;BME280;9752;54.270;12.470;2023-06-22T03:16:37;104292.06;;;13.78;100.00
19236;BME280;9752;54.270;12.470;2023-06-22T03:21:38;104306.81;;;13.86;100.00
19236;BME280;9752;54.270;12.470;2023-06-22T03:26:40;104323.56;;;13.88;100.00
19236;BME280;9752;54.270;12.470;2023-06-22T03:31:43;104320.94;;;13.88;100.00
19236;BME280;9752;54.270;12.470;2023-06-22T03:36:45;104336.94;;;13.91;100.00
19236;BME280;9752;54.270;12.470;2023-06-22T03:41:47;104342.94;;;13.99;100.00
19236;BME280;9752;54.270;12.470;2023-06-22T03:46:50;104356.34;;;14.11;100.00
19236;BME280;9752;54.270;12.470;2023-06-22T03:51:54;104396.00;;;14.15;100.00
19236;BME280;9752;54.270;12.470;2023-06-22T03:56:56;104382.31;;;14.18;100.00
19236;BME280;9752;54.270;12.470;2023-06-22T04:02:00;104404.78;;;14.33;100.00
19236;BME280;9752;54.270;12.470;2023-06-22T04:07:01;104409.56;;;14.46;100.00
19236;BME280;9752;54.270;12.470;2023-06-22T04:12:04;104407.72;;;14.45;100.00
19236;BME280;9752;54.270;12.470;2023-06-22T04:17:07;104401.00;;;14.56;100.00
19236;BME280;9752;54.270;12.470;2023-06-22T04:22:08;104408.25;;;14.76;100.00
19236;BME280;9752;54.270;12.470;2023-06-22T04:27:10;104430.59;;;15.16;100.00
19236;BME280;9752;54.270;12.470;2023-06-22T04:32:13;104421.03;;;15.16;100.00
19236;BME280;9752;54.270;12.470;2023-06-22T04:37:15;104414.72;;;15.32;100.00
19236;BME280;9752;54.270;12.470;2023-06-22T04:42:17;104420.06;;;15.51;100.00
19236;BME280;9752;54.270;12.470;2023-06-22T04:47:20;104406.19;;;15.60;100.00
19236;BME280;9752;54.270;12.470;2023-06-22T04:52:21;104422.66;;;16.05;100.00
19236;BME280;9752;54.270;12.470;2023-06-22T04:57:25;104442.50;;;16.48;100.00
19236;BME280;9752;54.270;12.470;2023-06-22T05:02:33;104452.75;;;16.83;100.00
19236;BME280;9752;54.270;12.470;2023-06-22T05:07:35;104456.53;;;16.95;100.00
19236;BME280;9752;54.270;12.470;2023-06-22T05:12:37;104427.19;;;16.99;100.00
19236;BME280;9752;54.270;12.470;2023-06-22T05:17:40;104436.63;;;17.45;100.00
19236;BME280;9752;54.270;12.470;2023-06-22T05:22:43;104408.66;;;17.75;100.00
19236;BME280;9752;54.270;12.470;2023-06-22T05:27:44;104366.47;;;18.03;100.00
19236;BME280;9752;54.270;12.470;2023-06-22T05:32:47;104280.56;;;18.12;100.00
19236;BME280;9752;54.270;12.470;2023-06-22T05:37:49;104206.97;;;18.22;100.00
19236;BME280;9752;54.270;12.470;2023-06-22T05:42:51;104126.44;;;18.55;100.00
19236;BME280;9752;54.270;12.470;2023-06-22T05:47:54;104064.84;;;19.07;100.00
19236;BME280;9752;54.270;12.470;2023-06-22T05:52:56;104026.16;;;19.76;100.00
19236;BME280;9752;54.270;12.470;2023-06-22T05:57:57;103934.69;;;20.10;100.00
19236;BME280;9752;54.270;12.470;2023-06-22T06:03:00;103796.31;;;20.42;100.00
19236;BME280;9752;54.270;12.470;2023-06-22T06:08:05;103648.00;;;20.86;100.00
19236;BME280;9752;54.270;12.470;2023-06-22T06:13:07;103466.66;;;20.69;100.00
19236;BME280;9752;54.270;12.470;2023-06-22T06:18:10;103311.22;;;20.57;100.00
19236;BME280;9752;54.270;12.470;2023-06-22T06:23:12;103203.69;;;20.82;100.00
19236;BME280;9752;54.270;12.470;2023-06-22T06:28:13;103080.72;;;21.50;100.00
19236;BME280;9752;54.270;12.470;2023-06-22T06:33:16;102890.06;;;21.57;100.00
19236;BME280;9752;54.270;12.470;2023-06-22T06:38:18;102687.59;;;21.01;100.00
19236;BME280;9752;54.270;12.470;2023-06-22T06:43:20;102586.66;;;21.63;100.00
19236;BME280;9752;54.270;12.470;2023-06-22T06:48:23;102419.00;;;21.97;100.00
19236;BME280;9752;54.270;12.470;2023-06-22T06:53:25;102252.50;;;21.73;100.00
19236;BME280;9752;54.270;12.470;2023-06-22T06:58:27;102223.34;;;21.70;100.00
19236;BME280;9752;54.270;12.470;2023-06-22T07:03:30;102218.44;;;21.34;100.00
19236;BME280;9752;54.270;12.470;2023-06-22T07:08:33;102197.13;;;21.75;100.00
19236;BME280;9752;54.270;12.470;2023-06-22T07:13:35;102192.78;;;22.01;100.00
19236;BME280;9752;54.270;12.470;2023-06-22T07:18:40;102178.53;;;22.21;100.00
19236;BME280;9752;54.270;12.470;2023-06-22T07:23:41;102166.44;;;22.04;100.00
19236;BME280;9752;54.270;12.470;2023-06-22T07:28:43;102165.16;;;22.70;100.00
19236;BME280;9752;54.270;12.470;2023-06-22T07:33:46;102155.03;;;22.29;100.00
19236;BME280;9752;54.270;12.470;2023-06-22T07:38:48;102162.75;;;22.77;100.00
19236;BME280;9752;54.270;12.470;2023-06-22T07:43:49;102156.47;;;22.21;100.00
19236;BME280;9752;54.270;12.470;2023-06-22T07:48:52;102162.44;;;21.66;100.00
19236;BME280;9752;54.270;12.470;2023-06-22T07:53:54;102152.03;;;21.94;100.00
19236;BME280;9752;54.270;12.470;2023-06-22T07:58:56;102154.19;;;22.06;100.00
19236;BME280;9752;54.270;12.470;2023-06-22T08:04:00;102153.31;;;21.11;100.00
19236;BME280;9752;54.270;12.470;2023-06-22T08:09:02;102158.50;;;21.32;100.00
19236;BME280;9752;54.270;12.470;2023-06-22T08:14:04;102158.63;;;21.35;100.00
19236;BME280;9752;54.270;12.470;2023-06-22T08:19:07;102162.03;;;21.32;100.00
19236;BME280;9752;54.270;12.470;2023-06-22T08:24:09;102160.97;;;21.74;100.00
19236;BME280;9752;54.270;12.470;2023-06-22T08:29:10;102152.41;;;22.05;100.00
19236;BME280;9752;54.270;12.470;2023-06-22T08:34:13;102141.56;;;22.23;100.00
19236;BME280;9752;54.270;12.470;2023-06-22T08:39:15;102155.03;;;22.29;100.00
19236;BME280;9752;54.270;12.470;2023-06-22T08:44:18;102161.59;;;22.40;100.00
19236;BME280;9752;54.270;12.470;2023-06-22T08:49:22;102163.88;;;22.06;100.00
19236;BME280;9752;54.270;12.470;2023-06-22T08:54:23;102146.47;;;22.64;100.00
19236;BME280;9752;54.270;12.470;2023-06-22T08:59:25;102158.28;;;22.75;100.00
19236;BME280;9752;54.270;12.470;2023-06-22T09:04:28;102149.47;;;22.76;100.00
19236;BME280;9752;54.270;12.470;2023-06-22T09:09:30;102161.06;;;23.07;100.00
19236;BME280;9752;54.270;12.470;2023-06-22T09:14:31;102162.16;;;23.44;100.00
19236;BME280;9752;54.270;12.470;2023-06-22T09:19:34;102166.31;;;23.34;100.00
19236;BME280;9752;54.270;12.470;2023-06-22T09:24:36;102154.91;;;23.68;100.00
19236;BME280;9752;54.270;12.470;2023-06-22T09:29:38;102149.53;;;23.35;100.00
19236;BME280;9752;54.270;12.470;2023-06-22T09:34:41;102158.25;;;23.02;100.00
19236;BME280;9752;54.270;12.470;2023-06-22T09:39:43;102153.13;;;23.37;100.00
19236;BME280;9752;54.270;12.470;2023-06-22T09:44:44;102143.00;;;23.22;100.00
19236;BME280;9752;54.270;12.470;2023-06-22T09:49:47;102133.00;;;23.42;100.00
19236;BME280;9752;54.270;12.470;2023-06-22T09:54:49;102138.44;;;23.48;100.00
19236;BME280;9752;54.270;12.470;2023-06-22T09:59:51;102148.03;;;23.43;100.00
19236;BME280;9752;54.270;12.470;2023-06-22T10:04:54;102148.41;;;23.57;100.00
19236;BME280;9752;54.270;12.470;2023-06-22T10:09:55;102150.38;;;23.32;100.00
19236;BME280;9752;54.270;12.470;2023-06-22T10:14:57;102159.41;;;23.71;100.00
19236;BME280;9752;54.270;12.470;2023-06-22T10:20:00;102143.25;;;23.30;100.00
19236;BME280;9752;54.270;12.470;2023-06-22T10:25:07;102144.06;;;23.59;100.00
19236;BME280;9752;54.270;12.470;2023-06-22T10:30:10;102137.66;;;23.81;100.00
19236;BME280;9752;54.270;12.470;2023-06-22T10:35:14;102140.91;;;23.72;100.00
19236;BME280;9752;54.270;12.470;2023-06-22T10:40:17;102138.44;;;23.48;100.00
19236;BME280;9752;54.270;12.470;2023-06-22T10:45:19;102125.69;;;23.65;100.00
19236;BME280;9752;54.270;12.470;2023-06-22T10:50:22;102133.41;;;23.88;100.00
19236;BME280;9752;54.270;12.470;2023-06-22T10:55:24;102128.78;;;23.50;100.00
19236;BME280;9752;54.270;12.470;2023-06-22T11:00:26;102121.84;;;23.86;100.00
19236;BME280;9752;54.270;12.470;2023-06-22T11:05:29;102113.31;;;23.96;100.00
19236;BME280;9752;54.270;12.470;2023-06-22T11:10:31;102114.06;;;23.92;100.00
19236;BME280;9752;54.270;12.470;2023-06-22T11:15:32;102111.22;;;23.84;100.00
19236;BME280;9752;54.270;12.470;2023-06-22T11:20:35;102105.63;;;23.73;100.00
19236;BME280;9752;54.270;12.470;2023-06-22T11:25:39;102102.88;;;23.70;100.00
19236;BME280;9752;54.270;12.470;2023-06-22T11:30:42;102097.91;;;23.81;100.00
19236;BME280;9752;54.270;12.470;2023-06-22T11:35:45;102092.72;;;23.86;100.00
19236;BME280;9752;54.270;12.470;2023-06-22T11:40:47;102100.66;;;23.54;100.00
19236;BME280;9752;54.270;12.470;2023-06-22T11:45:49;102094.03;;;24.03;100.00
19236;BME280;9752;54.270;12.470;2023-06-22T11:50:52;102091.22;;;24.32;100.00
19236;BME280;9752;54.270;12.470;2023-06-22T11:55:55;102085.44;;;24.12;100.00
19236;BME280;9752;54.270;12.470;2023-06-22T12:00:57;102080.13;;;24.48;100.00
19236;BME280;9752;54.270;12.470;2023-06-22T12:06:00;102082.59;;;24.79;100.00
19236;BME280;9752;54.270;12.470;2023-06-22T12:11:01;102083.50;;;24.78;100.00
19236;BME280;9752;54.270;12.470;2023-06-22T12:16:03;102083.25;;;25.09;100.00
19236;BME280;9752;54.270;12.470;2023-06-22T12:21:06;102079.22;;;24.48;100.00
19236;BME280;9752;54.270;12.470;2023-06-22T12:26:08;102067.44;;;24.35;100.00
19236;BME280;9752;54.270;12.470;2023-06-22T12:31:10;102062.81;;;24.63;100.00
19236;BME280;9752;54.270;12.470;2023-06-22T12:36:13;102069.63;;;24.51;100.00
19236;BME280;9752;54.270;12.470;2023-06-22T12:41:14;102057.75;;;25.16;100.00
19236;BME280;9752;54.270;12.470;2023-06-22T12:46:16;102061.81;;;25.41;100.00
19236;BME280;9752;54.270;12.470;2023-06-22T12:51:22;102061.25;;;25.15;100.00
19236;BME280;9752;54.270;12.470;2023-06-22T12:56:24;102058.81;;;25.24;100.00
19236;BME280;9752;54.270;12.470;2023-06-22T13:01:26;102067.25;;;25.05;100.00
19236;BME280;9752;54.270;12.470;2023-06-22T13:06:29;102066.91;;;25.29;100.00
19236;BME280;9752;54.270;12.470;2023-06-22T13:11:30;102059.22;;;25.46;100.00
19236;BME280;9752;54.270;12.470;2023-06-22T13:16:32;102059.78;;;25.75;100.00
19236;BME280;9752;54.270;12.470;2023-06-22T13:21:35;102048.13;;;25.68;100.00
19236;BME280;9752;54.270;12.470;2023-06-22T13:26:37;102039.50;;;25.80;100.00
19236;BME280;9752;54.270;12.470;2023-06-22T13:31:39;102034.19;;;25.80;100.00
19236;BME280;9752;54.270;12.470;2023-06-22T13:36:42;102028.38;;;25.52;99.88
19236;BME280;9752;54.270;12.470;2023-06-22T13:41:43;102030.91;;;25.46;97.04
19236;BME280;9752;54.270;12.470;2023-06-22T13:46:45;102015.50;;;25.77;96.06
19236;BME280;9752;54.270;12.470;2023-06-22T13:51:48;102018.81;;;26.16;95.21
19236;BME280;9752;54.270;12.470;2023-06-22T13:56:50;102013.19;;;25.96;93.64
19236;BME280;9752;54.270;12.470;2023-06-22T14:01:52;102005.38;;;26.05;94.82
19236;BME280;9752;54.270;12.470;2023-06-22T14:06:55;102015.94;;;26.02;93.13
19236;BME280;9752;54.270;12.470;2023-06-22T14:11:57;102000.19;;;26.16;94.89
19236;BME280;9752;54.270;12.470;2023-06-22T14:16:58;101987.84;;;27.68;91.10
19236;BME280;9752;54.270;12.470;2023-06-22T14:22:02;101974.53;;;29.50;81.95
19236;BME280;9752;54.270;12.470;2023-06-22T14:27:04;101978.88;;;29.08;80.29
19236;BME280;9752;54.270;12.470;2023-06-22T14:32:09;101974.53;;;29.64;76.05
19236;BME280;9752;54.270;12.470;2023-06-22T14:37:12;101963.75;;;30.29;71.88
19236;BME280;9752;54.270;12.470;2023-06-22T14:42:14;101957.19;;;31.05;69.30
19236;BME280;9752;54.270;12.470;2023-06-22T14:47:16;101962.59;;;31.01;68.14
19236;BME280;9752;54.270;12.470;2023-06-22T14:52:20;101966.25;;;30.75;64.76
19236;BME280;9752;54.270;12.470;2023-06-22T14:57:21;101975.34;;;30.22;66.27
19236;BME280;9752;54.270;12.470;2023-06-22T15:02:23;101962.69;;;30.76;65.67
19236;BME280;9752;54.270;12.470;2023-06-22T15:07:26;101962.94;;;29.96;66.94
19236;BME280;9752;54.270;12.470;2023-06-22T15:12:28;101934.03;;;32.05;61.45
19236;BME280;9752;54.270;12.470;2023-06-22T15:17:30;101946.75;;;30.51;65.60
19236;BME280;9752;54.270;12.470;2023-06-22T15:22:33;101914.94;;;32.98;61.25
19236;BME280;9752;54.270;12.470;2023-06-22T15:27:34;101934.44;;;31.63;64.61
19236;BME280;9752;54.270;12.470;2023-06-22T15:32:36;101925.94;;;31.01;63.48
19236;BME280;9752;54.270;12.470;2023-06-22T15:37:39;101897.59;;;32.58;63.29
19236;BME280;9752;54.270;12.470;2023-06-22T15:42:40;101890.38;;;31.87;70.70
19236;BME280;9752;54.270;12.470;2023-06-22T15:47:42;101902.34;;;31.52;77.39
19236;BME280;9752;54.270;12.470;2023-06-22T15:52:45;101898.75;;;29.59;82.28
19236;BME280;9752;54.270;12.470;2023-06-22T15:57:50;101877.91;;;30.72;80.91
19236;BME280;9752;54.270;12.470;2023-06-22T16:02:53;101850.78;;;31.15;79.72
19236;BME280;9752;54.270;12.470;2023-06-22T16:07:56;101857.00;;;31.23;77.71
19236;BME280;9752;54.270;12.470;2023-06-22T16:12:58;101851.38;;;32.32;75.82
19236;BME280;9752;54.270;12.470;2023-06-22T16:17:59;101846.34;;;32.72;71.76
19236;BME280;9752;54.270;12.470;2023-06-22T16:23:02;101852.91;;;33.12;73.04
19236;BME280;9752;54.270;12.470;2023-06-22T16:28:04;101857.44;;;31.70;75.74
19236;BME280;9752;54.270;12.470;2023-06-22T16:33:06;101845.81;;;31.74;72.21
19236;BME280;9752;54.270;12.470;2023-06-22T16:38:09;101845.00;;;31.64;70.39
19236;BME280;9752;54.270;12.470;2023-06-22T16:43:10;101858.69;;;29.19;81.09
19236;BME280;9752;54.270;12.470;2023-06-22T16:48:12;101858.50;;;28.34;87.30
19236;BME280;9752;54.270;12.470;2023-06-22T16:53:15;101827.34;;;30.07;83.39
19236;BME280;9752;54.270;12.470;2023-06-22T16:58:19;101813.03;;;31.41;74.45
19236;BME280;9752;54.270;12.470;2023-06-22T17:03:26;101832.53;;;27.95;88.47
19236;BME280;9752;54.270;12.470;2023-06-22T17:08:31;101837.81;;;26.75;97.05
19236;BME280;9752;54.270;12.470;2023-06-22T17:13:34;101826.19;;;25.95;100.00
19236;BME280;9752;54.270;12.470;2023-06-22T17:18:39;101814.75;;;25.40;100.00
19236;BME280;9752;54.270;12.470;2023-06-22T17:23:43;101813.22;;;24.52;100.00
19236;BME280;9752;54.270;12.470;2023-06-22T17:28:49;101795.56;;;24.10;100.00
19236;BME280;9752;54.270;12.470;2023-06-22T17:33:51;101796.25;;;24.01;100.00
19236;BME280;9752;54.270;12.470;2023-06-22T17:38:58;101789.38;;;24.09;100.00
19236;BME280;9752;54.270;12.470;2023-06-22T17:44:00;101764.22;;;29.40;100.00
19236;BME280;9752;54.270;12.470;2023-06-22T17:49:07;101755.22;;;31.16;91.68
19236;BME280;9752;54.270;12.470;2023-06-22T17:54:11;101783.66;;;27.97;97.79
19236;BME280;9752;54.270;12.470;2023-06-22T17:59:12;101791.28;;;25.69;100.00
19236;BME280;9752;54.270;12.470;2023-06-22T18:04:15;101789.13;;;24.90;100.00
19236;BME280;9752;54.270;12.470;2023-06-22T18:09:18;101774.66;;;24.25;100.00
19236;BME280;9752;54.270;12.470;2023-06-22T18:14:20;101772.28;;;23.95;100.00
19236;BME280;9752;54.270;12.470;2023-06-22T18:19:22;101766.34;;;23.66;100.00
19236;BME280;9752;54.270;12.470;2023-06-22T18:24:26;101763.28;;;23.47;100.00
19236;BME280;9752;54.270;12.470;2023-06-22T18:29:29;101759.88;;;23.53;100.00
19236;BME280;9752;54.270;12.470;2023-06-22T18:34:32;101758.34;;;23.25;100.00
19236;BME280;9752;54.270;12.470;2023-06-22T18:39:35;101773.97;;;22.79;100.00
19236;BME280;9752;54.270;12.470;2023-06-22T18:44:40;101782.00;;;22.18;100.00
19236;BME280;9752;54.270;12.470;2023-06-22T18:49:46;101765.78;;;22.06;100.00
19236;BME280;9752;54.270;12.470;2023-06-22T18:54:50;101751.84;;;21.81;100.00
19236;BME280;9752;54.270;12.470;2023-06-22T18:59:58;101755.28;;;21.49;100.00
19236;BME280;9752;54.270;12.470;2023-06-22T19:05:08;101761.75;;;21.31;100.00
19236;BME280;9752;54.270;12.470;2023-06-22T19:10:22;101752.66;;;21.21;100.00
19236;BME280;9752;54.270;12.470;2023-06-22T19:15:29;101750.34;;;21.05;100.00
19236;BME280;9752;54.270;12.470;2023-06-22T19:20:33;101746.84;;;20.79;100.00
19236;BME280;9752;54.270;12.470;2023-06-22T19:25:36;101745.16;;;20.55;100.00
19236;BME280;9752;54.270;12.470;2023-06-22T19:30:40;101752.81;;;20.23;100.00
19236;BME280;9752;54.270;12.470;2023-06-22T19:35:42;101745.63;;;20.19;100.00
19236;BME280;9752;54.270;12.470;2023-06-22T19:40:45;101730.03;;;20.00;100.00
19236;BME280;9752;54.270;12.470;2023-06-22T19:45:47;101726.47;;;19.75;100.00
19236;BME280;9752;54.270;12.470;2023-06-22T19:50:49;101725.66;;;19.55;100.00
19236;BME280;9752;54.270;12.470;2023-06-22T19:55:52;101716.31;;;19.63;100.00
19236;BME280;9752;54.270;12.470;2023-06-22T20:00:54;101721.44;;;19.59;100.00
19236;BME280;9752;54.270;12.470;2023-06-22T20:06:07;101734.06;;;19.45;100.00
19236;BME280;9752;54.270;12.470;2023-06-22T20:11:10;101716.22;;;19.38;100.00
19236;BME280;9752;54.270;12.470;2023-06-22T20:16:12;101715.22;;;19.34;100.00
19236;BME280;9752;54.270;12.470;2023-06-22T20:21:14;101710.31;;;19.21;100.00
19236;BME280;9752;54.270;12.470;2023-06-22T20:26:17;101719.66;;;19.13;100.00
19236;BME280;9752;54.270;12.470;2023-06-22T20:31:19;101731.94;;;19.14;100.00
19236;BME280;9752;54.270;12.470;2023-06-22T20:36:23;101720.16;;;19.04;100.00
19236;BME280;9752;54.270;12.470;2023-06-22T20:41:26;101728.75;;;19.00;100.00
19236;BME280;9752;54.270;12.470;2023-06-22T20:46:29;101721.28;;;18.88;100.00
19236;BME280;9752;54.270;12.470;2023-06-22T20:51:31;101724.63;;;18.84;100.00
19236;BME280;9752;54.270;12.470;2023-06-22T20:56:34;101721.69;;;18.78;100.00
19236;BME280;9752;54.270;12.470;2023-06-22T21:01:36;101743.56;;;18.77;100.00
19236;BME280;9752;54.270;12.470;2023-06-22T21:06:37;101744.38;;;18.76;100.00
19236;BME280;9752;54.270;12.470;2023-06-22T21:11:41;101730.47;;;18.78;100.00
19236;BME280;9752;54.270;12.470;2023-06-22T21:16:42;101722.31;;;18.72;100.00
19236;BME280;9752;54.270;12.470;2023-06-22T21:21:45;101727.56;;;18.72;100.00
19236;BME280;9752;54.270;12.470;2023-06-22T21:26:48;101739.81;;;18.71;100.00
19236;BME280;9752;54.270;12.470;2023-06-22T21:31:49;101731.63;;;18.64;100.00
19236;BME280;9752;54.270;12.470;2023-06-22T21:36:51;101730.44;;;18.57;100.00
19236;BME280;9752;54.270;12.470;2023-06-22T21:41:54;101727.97;;;18.60;100.00
19236;BME280;9752;54.270;12.470;2023-06-22T21:46:56;101736.47;;;18.54;100.00
19236;BME280;9752;54.270;12.470;2023-06-22T21:51:57;101741.41;;;18.47;100.00
19236;BME280;9752;54.270;12.470;2023-06-22T21:57:00;101749.16;;;18.44;100.00
19236;BME280;9752;54.270;12.470;2023-06-22T22:02:02;101748.47;;;18.48;100.00
19236;BME280;9752;54.270;12.470;2023-06-22T22:07:04;101760.44;;;18.62;100.00
19236;BME280;9752;54.270;12.470;2023-06-22T22:12:08;101767.13;;;18.54;100.00
19236;BME280;9752;54.270;12.470;2023-06-22T22:17:10;101768.16;;;18.58;100.00
19236;BME280;9752;54.270;12.470;2023-06-22T22:22:12;101769.03;;;18.58;100.00
19236;BME280;9752;54.270;12.470;2023-06-22T22:27:15;101772.16;;;18.49;100.00
19236;BME280;9752;54.270;12.470;2023-06-22T22:32:17;101776.25;;;18.43;100.00
19236;BME280;9752;54.270;12.470;2023-06-22T22:37:18;101795.34;;;18.39;100.00
19236;BME280;9752;54.270;12.470;2023-06-22T22:42:21;101799.41;;;18.32;100.00
19236;BME280;9752;54.270;12.470;2023-06-22T22:47:23;101808.75;;;18.25;100.00
19236;BME280;9752;54.270;12.470;2023-06-22T22:52:25;101819.53;;;18.12;100.00
19236;BME280;9752;54.270;12.470;2023-06-22T22:57:30;101837.63;;;18.06;100.00
19236;BME280;9752;54.270;12.470;2023-06-22T23:02:31;101851.31;;;17.99;100.00
19236;BME280;9752;54.270;12.470;2023-06-22T23:07:33;101849.63;;;17.83;100.00
19236;BME280;9752;54.270;12.470;2023-06-22T23:12:36;101863.88;;;17.70;100.00
19236;BME280;9752;54.270;12.470;2023-06-22T23:17:38;101888.63;;;17.75;100.00
19236;BME280;9752;54.270;12.470;2023-06-22T23:22:39;101897.41;;;17.75;100.00
19236;BME280;9752;54.270;12.470;2023-06-22T23:27:42;101917.75;;;17.80;100.00
19236;BME280;9752;54.270;12.470;2023-06-22T23:32:44;102135.63;;;17.81;100.00
19236;BME280;9752;54.270;12.470;2023-06-22T23:37:46;102164.94;;;17.89;100.00
19236;BME280;9752;54.270;12.470;2023-06-22T23:42:49;102146.66;;;17.90;100.00
19236;BME280;9752;54.270;12.470;2023-06-22T23:47:52;102128.75;;;17.83;100.00
19236;BME280;9752;54.270;12.470;2023-06-22T23:52:53;102126.63;;;17.76;100.00
19236;BME280;9752;54.270;12.470;2023-06-22T23:57:56;102133.53;;;17.74;100.00
